Time;durP1;ratioP1;P1;durP2;ratioP2;P2;SDS_P1;SDS_P2;PMS_P1;PMS_P2;Temp;Humidity;BMP_temperature;BMP_pressure;BME280_temperature;BME280_humidity;BME280_pressure;Samples;Min_cycle;Max_cycle;Signal;HPM_P1;HPM_P2
2023/07/12 00:02:13;;;;;;;2.53;1.90;;;24.20;68.20;;;;;;10285102;28;20122;-56
2023/07/12 00:07:14;;;;;;;3.25;2.10;;;24.20;68.20;;;;;;10290365;28;20117;-57
2023/07/12 00:12:14;;;;;;;2.28;1.45;;;24.20;68.20;;;;;;10292819;28;20477;-57
2023/07/12 00:17:18;;;;;;;1.83;1.63;;;24.20;68.20;;;;;;10310074;28;20066;-58
2023/07/12 00:22:19;;;;;;;2.92;2.10;;;24.20;68.20;;;;;;10294212;28;20033;-57
2023/07/12 00:27:19;;;;;;;2.70;1.75;;;24.20;68.10;;;;;;10287972;28;20047;-57
2023/07/12 00:32:20;;;;;;;2.58;1.67;;;24.20;68.10;;;;;;10284407;28;20094;-58
2023/07/12 00:37:21;;;;;;;2.95;1.80;;;24.20;68.10;;;;;;10284293;28;20414;-57
2023/07/12 00:42:33;;;;;;;3.55;2.30;;;24.20;68.10;;;;;;10284246;28;20106;-57
2023/07/12 00:47:33;;;;;;;1.83;1.38;;;24.20;68.00;;;;;;10282750;28;20023;-57
2023/07/12 00:52:34;;;;;;;2.28;1.60;;;24.20;68.00;;;;;;10284063;28;20111;-57
2023/07/12 00:57:35;;;;;;;2.67;1.70;;;24.10;67.90;;;;;;10283917;28;20097;-58
2023/07/12 01:02:42;;;;;;;4.70;1.83;;;24.10;67.90;;;;;;10287000;28;20070;-58
2023/07/12 01:07:44;;;;;;;2.03;1.40;;;24.10;67.90;;;;;;10291498;28;20081;-57
2023/07/12 01:12:46;;;;;;;2.38;1.90;;;24.10;67.90;;;;;;10314521;28;20046;-56
2023/07/12 01:17:46;;;;;;;2.65;1.80;;;24.10;67.90;;;;;;10316764;28;20026;-55
2023/07/12 01:22:50;;;;;;;2.70;1.98;;;24.10;67.80;;;;;;10332258;28;20034;-57
2023/07/12 01:27:51;;;;;;;2.88;1.90;;;24.10;67.90;;;;;;10330030;28;20073;-57
2023/07/12 01:32:52;;;;;;;2.33;1.50;;;24.10;67.80;;;;;;10331341;28;20474;-57
2023/07/12 01:37:53;;;;;;;3.08;1.80;;;24.10;67.80;;;;;;10331064;28;20014;-57
2023/07/12 01:42:54;;;;;;;2.80;1.98;;;24.10;67.80;;;;;;10329398;28;20053;-56
2023/07/12 01:47:56;;;;;;;2.78;1.88;;;24.00;67.70;;;;;;10330424;28;20101;-57
2023/07/12 01:52:57;;;;;;;2.33;1.80;;;24.10;67.80;;;;;;10330451;28;20027;-57
2023/07/12 01:57:58;;;;;;;2.47;1.45;;;24.00;67.60;;;;;;10330923;28;20109;-54
2023/07/12 02:02:58;;;;;;;2.75;1.80;;;24.00;67.60;;;;;;10294257;28;20045;-56
2023/07/12 02:07:59;;;;;;;3.80;1.83;;;24.00;67.70;;;;;;10300764;28;20125;-58
2023/07/12 02:13:01;;;;;;;3.13;1.70;;;24.00;67.70;;;;;;10290704;28;20034;-57
2023/07/12 02:18:02;;;;;;;3.75;1.77;;;24.00;67.60;;;;;;10314127;28;20362;-57
2023/07/12 02:23:03;;;;;;;2.65;2.33;;;24.00;67.60;;;;;;10288402;28;20041;-55
2023/07/12 02:28:04;;;;;;;3.03;2.05;;;24.00;67.30;;;;;;10288899;28;20018;-55
2023/07/12 02:33:05;;;;;;;2.58;1.55;;;24.00;67.40;;;;;;10289255;28;20027;-56
2023/07/12 02:38:06;;;;;;;2.33;1.48;;;24.00;67.50;;;;;;10288410;28;20050;-57
2023/07/12 02:43:07;;;;;;;2.85;1.80;;;24.00;67.60;;;;;;10288499;28;20067;-57
2023/07/12 02:48:08;;;;;;;3.40;1.85;;;24.00;67.50;;;;;;10288241;28;20066;-55
2023/07/12 02:53:19;;;;;;;2.10;1.30;;;24.00;67.50;;;;;;10288022;28;20105;-57
2023/07/12 02:58:20;;;;;;;2.50;1.48;;;24.00;67.60;;;;;;10287972;28;20134;-56
2023/07/12 03:03:21;;;;;;;3.30;1.98;;;24.00;67.60;;;;;;10300907;28;20030;-57
2023/07/12 03:08:21;;;;;;;2.50;1.40;;;24.00;67.50;;;;;;10300626;28;20133;-58
2023/07/12 03:13:22;;;;;;;1.98;1.40;;;23.90;67.10;;;;;;10287804;28;20026;-58
2023/07/12 03:18:23;;;;;;;3.58;2.40;;;24.00;66.90;;;;;;10310751;28;20104;-56
2023/07/12 03:23:23;;;;;;;4.40;1.70;;;23.90;66.80;;;;;;10286974;28;20134;-56
2023/07/12 03:28:25;;;;;;;3.88;1.90;;;23.90;67.00;;;;;;10286765;28;20093;-57
2023/07/12 03:33:26;;;;;;;3.63;1.77;;;23.90;67.40;;;;;;10295543;28;20027;-57
2023/07/12 03:38:29;;;;;;;1.60;1.30;;;23.90;67.30;;;;;;10321052;28;20429;-55
2023/07/12 03:43:31;;;;;;;2.97;1.73;;;23.90;67.20;;;;;;10319160;28;20056;-58
2023/07/12 03:48:33;;;;;;;2.65;1.83;;;24.00;67.10;;;;;;10319208;28;20023;-57
2023/07/12 03:53:36;;;;;;;2.65;1.88;;;24.00;66.70;;;;;;10320550;28;20121;-58
2023/07/12 03:58:39;;;;;;;3.28;1.80;;;24.00;66.70;;;;;;10317157;28;20037;-59
2023/07/12 04:03:39;;;;;;;4.10;1.90;;;24.00;66.60;;;;;;10322367;28;20108;-55
2023/07/12 04:08:40;;;;;;;4.20;1.77;;;24.00;66.90;;;;;;10318356;28;20114;-57
2023/07/12 04:13:41;;;;;;;3.70;1.55;;;24.00;67.20;;;;;;10306625;28;20109;-57
2023/07/12 04:18:42;;;;;;;3.65;1.60;;;24.00;67.50;;;;;;10305011;28;20122;-58
2023/07/12 04:23:42;;;;;;;4.07;2.03;;;24.00;67.00;;;;;;10311979;28;20121;-58
2023/07/12 04:28:48;;;;;;;4.22;1.60;;;24.00;67.50;;;;;;10320781;28;20050;-58
2023/07/12 04:33:50;;;;;;;4.57;1.83;;;24.00;67.00;;;;;;10309958;28;20034;-58
2023/07/12 04:38:51;;;;;;;2.17;1.45;;;24.00;67.00;;;;;;10324437;28;20074;-58
2023/07/12 04:43:51;;;;;;;2.95;1.60;;;23.90;67.10;;;;;;10322766;28;20030;-58
2023/07/12 04:48:52;;;;;;;2.80;1.65;;;23.90;67.10;;;;;;10323394;28;20026;-57
2023/07/12 04:53:52;;;;;;;2.92;1.88;;;23.90;67.20;;;;;;10324142;28;20102;-57
2023/07/12 04:58:54;;;;;;;3.70;1.80;;;23.90;67.30;;;;;;10323916;28;20120;-58
2023/07/12 05:03:54;;;;;;;5.40;2.55;;;23.90;67.10;;;;;;10323794;28;20046;-57
2023/07/12 05:08:55;;;;;;;4.25;2.00;;;23.90;67.50;;;;;;10317687;28;20027;-57
2023/07/12 05:13:56;;;;;;;6.60;3.10;;;24.00;67.70;;;;;;10290155;28;20022;-58
2023/07/12 05:18:56;;;;;;;4.63;2.67;;;24.00;67.60;;;;;;10302022;28;20023;-57
2023/07/12 05:23:57;;;;;;;6.72;2.30;;;24.10;68.10;;;;;;10283272;28;20047;-56
2023/07/12 05:28:58;;;;;;;5.15;2.72;;;24.00;68.10;;;;;;10283367;28;20085;-57
2023/07/12 05:34:00;;;;;;;5.35;2.70;;;24.10;68.10;;;;;;10283125;28;20105;-55
2023/07/12 05:39:00;;;;;;;9.63;3.40;;;24.00;68.30;;;;;;10282703;28;20375;-57
2023/07/12 05:44:01;;;;;;;6.07;2.70;;;24.00;68.40;;;;;;10283247;28;20077;-56
2023/07/12 05:49:02;;;;;;;10.27;3.38;;;24.00;68.40;;;;;;10283185;28;20082;-57
2023/07/12 05:54:03;;;;;;;4.03;2.70;;;24.00;68.10;;;;;;10282889;28;20101;-56
2023/07/12 05:59:03;;;;;;;13.57;4.00;;;24.00;68.40;;;;;;10287359;28;20082;-56
2023/07/12 06:04:04;;;;;;;7.18;2.92;;;24.00;68.50;;;;;;10301582;28;20061;-56
2023/07/12 06:09:05;;;;;;;16.63;5.35;;;24.00;68.00;;;;;;10314310;28;20033;-57
2023/07/12 06:14:06;;;;;;;15.40;3.95;;;24.00;68.00;;;;;;10299772;28;20018;-57
2023/07/12 06:19:07;;;;;;;12.13;4.13;;;24.00;68.10;;;;;;10319329;28;20022;-56
2023/07/12 06:24:08;;;;;;;10.73;4.53;;;24.00;67.80;;;;;;10329374;28;20563;-56
2023/07/12 06:29:08;;;;;;;10.40;3.88;;;24.00;67.70;;;;;;10328320;28;20018;-56
2023/07/12 06:34:09;;;;;;;13.77;4.30;;;23.90;67.90;;;;;;10289614;28;20022;-57
2023/07/12 06:39:10;;;;;;;9.02;4.30;;;23.90;67.80;;;;;;10288940;28;20355;-57
2023/07/12 06:44:11;;;;;;;10.75;4.10;;;23.90;67.50;;;;;;10307855;28;20126;-56
2023/07/12 06:49:15;;;;;;;7.38;3.65;;;23.90;67.70;;;;;;10328512;28;20709;-57
2023/07/12 06:54:16;;;;;;;9.10;3.63;;;23.90;67.50;;;;;;10328474;28;20072;-58
2023/07/12 06:59:17;;;;;;;9.52;4.30;;;24.00;67.50;;;;;;10328214;28;20365;-56
2023/07/12 07:04:18;;;;;;;11.77;4.03;;;24.00;67.50;;;;;;10326750;28;20058;-57
2023/07/12 07:09:20;;;;;;;7.88;3.92;;;24.00;67.50;;;;;;10317826;28;20019;-57
2023/07/12 07:14:20;;;;;;;8.55;4.57;;;24.00;67.50;;;;;;10296636;28;20023;-57
2023/07/12 07:19:21;;;;;;;7.45;3.42;;;24.00;67.30;;;;;;10313225;28;20043;-58
2023/07/12 07:24:22;;;;;;;6.63;3.45;;;24.00;67.30;;;;;;10326840;28;20038;-55
2023/07/12 07:29:22;;;;;;;6.03;3.08;;;24.00;67.20;;;;;;10324977;28;20378;-57
2023/07/12 07:34:23;;;;;;;11.77;5.18;;;24.00;67.20;;;;;;10325069;28;20553;-56
2023/07/12 07:39:24;;;;;;;7.60;3.75;;;23.90;67.20;;;;;;10295653;28;20493;-57
2023/07/12 07:44:25;;;;;;;5.30;3.35;;;23.90;67.20;;;;;;10286295;28;20089;-57
2023/07/12 07:49:26;;;;;;;5.78;3.63;;;24.00;67.30;;;;;;10285939;28;20094;-57
2023/07/12 07:54:26;;;;;;;8.40;3.13;;;23.90;67.20;;;;;;10283667;28;20046;-55
2023/07/12 07:59:27;;;;;;;5.75;4.05;;;23.90;67.30;;;;;;10283431;28;20458;-57
2023/07/12 08:04:29;;;;;;;6.55;3.40;;;23.90;67.30;;;;;;10283290;28;20039;-56
2023/07/12 08:09:30;;;;;;;5.70;3.45;;;23.90;67.30;;;;;;10296579;28;20030;-56
2023/07/12 08:14:31;;;;;;;5.35;3.15;;;23.90;67.20;;;;;;10293924;28;20438;-57
2023/07/12 08:19:31;;;;;;;4.30;3.00;;;23.90;67.10;;;;;;10296066;28;20021;-57
2023/07/12 08:24:32;;;;;;;7.65;3.30;;;23.90;67.60;;;;;;10282123;28;20449;-57
2023/07/12 08:29:33;;;;;;;5.93;2.90;;;23.90;67.00;;;;;;10282741;28;20449;-56
2023/07/12 08:34:34;;;;;;;5.70;3.50;;;23.90;66.90;;;;;;10282397;28;20509;-56
2023/07/12 08:39:35;;;;;;;7.03;2.88;;;24.00;66.70;;;;;;10282603;28;20043;-57
2023/07/12 08:44:36;;;;;;;5.18;2.78;;;24.00;66.70;;;;;;10280927;28;20041;-56
2023/07/12 08:49:37;;;;;;;4.53;2.88;;;24.00;66.70;;;;;;10280760;28;20379;-58
2023/07/12 08:54:37;;;;;;;8.68;3.60;;;24.00;66.70;;;;;;10282077;28;20065;-56
2023/07/12 08:59:38;;;;;;;7.18;3.70;;;24.00;66.60;;;;;;10282140;28;20114;-57
2023/07/12 09:04:39;;;;;;;8.52;3.35;;;24.00;66.40;;;;;;10281325;28;20497;-56
2023/07/12 09:09:40;;;;;;;5.07;3.30;;;24.00;66.40;;;;;;10294563;28;20029;-56
2023/07/12 09:14:40;;;;;;;6.03;4.25;;;24.00;66.50;;;;;;10293556;28;20018;-56
2023/07/12 09:19:43;;;;;;;7.63;3.33;;;24.00;66.40;;;;;;10294551;28;20118;-57
2023/07/12 09:24:50;;;;;;;5.78;3.88;;;24.00;66.30;;;;;;10301878;28;20115;-57
2023/07/12 09:30:04;;;;;;;4.85;3.50;;;24.10;66.40;;;;;;10290267;28;20555;-56
2023/07/12 09:35:41;;;;;;;6.43;3.50;;;24.10;66.40;;;;;;10289241;28;20430;-58
2023/07/12 09:40:48;;;;;;;5.85;3.83;;;24.00;66.10;;;;;;10306590;28;20072;-55
2023/07/12 09:46:26;;;;;;;5.07;3.55;;;24.00;66.10;;;;;;10318214;28;20134;-56
2023/07/12 09:51:45;;;;;;;5.40;3.25;;;24.10;66.00;;;;;;10321309;28;20103;-54
2023/07/12 09:57:01;;;;;;;5.00;3.28;;;24.10;65.90;;;;;;10286899;28;20043;-56
2023/07/12 10:02:30;;;;;;;7.30;3.45;;;24.10;65.70;;;;;;10315161;28;20042;-57
2023/07/12 10:08:13;;;;;;;4.15;2.95;;;24.20;65.80;;;;;;10314416;28;20080;-56
2023/07/12 10:13:34;;;;;;;6.55;3.28;;;24.20;65.50;;;;;;10285354;28;20061;-56
2023/07/12 10:18:37;;;;;;;5.28;3.22;;;24.20;65.70;;;;;;10288077;28;20382;-58
2023/07/12 10:23:51;;;;;;;8.07;3.25;;;24.20;65.70;;;;;;10285996;28;20507;-56
2023/07/12 10:29:09;;;;;;;5.40;3.05;;;24.20;66.40;;;;;;10303831;28;20585;-56
2023/07/12 10:34:34;;;;;;;9.93;4.15;;;24.20;66.30;;;;;;10308093;28;20037;-55
2023/07/12 10:39:35;;;;;;;7.32;3.50;;;24.10;66.40;;;;;;10308387;28;20027;-55
2023/07/12 10:44:45;;;;;;;6.28;3.17;;;24.20;66.50;;;;;;10306080;28;20121;-57
2023/07/12 10:49:59;;;;;;;13.20;4.13;;;24.20;66.40;;;;;;10307828;28;20022;-57
2023/07/12 10:55:09;;;;;;;7.13;3.08;;;24.10;66.30;;;;;;10306691;28;20474;-57
2023/07/12 11:00:18;;;;;;;10.70;3.78;;;24.10;66.20;;;;;;10300794;28;20114;-59
2023/07/12 11:05:39;;;;;;;16.55;4.20;;;24.10;66.10;;;;;;10287151;28;20050;-59
2023/07/12 11:10:43;;;;;;;12.60;4.65;;;24.10;66.30;;;;;;10299329;28;20058;-57
2023/07/12 11:15:58;;;;;;;9.18;3.45;;;24.20;65.90;;;;;;10306105;28;20470;-58
2023/07/12 11:21:05;;;;;;;9.30;4.38;;;24.10;65.30;;;;;;10323904;28;20026;-57
2023/07/12 11:26:34;;;;;;;16.20;3.42;;;24.10;64.60;;;;;;10309938;28;20367;-58
2023/07/12 11:31:40;;;;;;;;;;;24.20;63.90;;;;;;10308672;28;20030;-57
2023/07/12 11:36:41;;;;;;;8.52;3.00;;;24.20;63.50;;;;;;10286001;28;19909;-57
2023/07/12 11:41:56;;;;;;;7.07;3.08;;;24.20;63.30;;;;;;10283148;28;20062;-58
2023/07/12 11:46:58;;;;;;;8.02;3.38;;;24.20;63.00;;;;;;10282710;28;20011;-57
2023/07/12 11:52:11;;;;;;;6.25;2.95;;;24.20;62.90;;;;;;10284257;28;20136;-55
2023/07/12 11:57:12;;;;;;;10.43;2.92;;;24.20;63.20;;;;;;10282019;28;20026;-57
2023/07/12 12:02:22;;;;;;;8.13;2.78;;;24.20;63.30;;;;;;10283421;28;20411;-58
2023/07/12 12:07:39;;;;;;;9.63;2.88;;;24.20;63.40;;;;;;10289849;28;20034;-55
2023/07/12 12:12:40;;;;;;;8.32;3.10;;;24.20;63.60;;;;;;10286354;28;20030;-57
2023/07/12 12:17:44;;;;;;;4.53;2.50;;;24.20;63.50;;;;;;10313312;28;20030;-55
2023/07/12 12:22:56;;;;;;;8.57;2.88;;;24.30;63.60;;;;;;10294702;28;20406;-56
2023/07/12 12:27:57;;;;;;;17.90;4.45;;;24.30;63.90;;;;;;10281862;28;20086;-57
2023/07/12 12:33:03;;;;;;;15.90;3.97;;;24.30;64.30;;;;;;10311764;28;20055;-57
2023/07/12 12:38:36;;;;;;;17.77;5.40;;;24.30;64.20;;;;;;10290903;28;20105;-57
2023/07/12 12:43:37;;;;;;;8.85;3.22;;;24.30;64.70;;;;;;10282577;28;20035;-57
2023/07/12 12:48:37;;;;;;;10.95;4.00;;;24.30;64.10;;;;;;10282599;28;20010;-56
2023/07/12 12:53:38;;;;;;;9.40;3.05;;;24.30;63.90;;;;;;10281830;28;20484;-55
2023/07/12 12:58:38;;;;;;;9.88;3.10;;;24.30;64.00;;;;;;10281934;28;20106;-57
2023/07/12 13:03:40;;;;;;;5.40;2.45;;;24.30;63.80;;;;;;10281487;28;20118;-57
2023/07/12 13:08:41;;;;;;;6.00;2.95;;;24.30;63.70;;;;;;10302920;28;20565;-56
2023/07/12 13:13:42;;;;;;;8.05;3.33;;;24.30;63.70;;;;;;10299238;28;20061;-56
2023/07/12 13:18:44;;;;;;;5.88;2.72;;;24.30;63.70;;;;;;10316073;28;20711;-57
2023/07/12 13:23:46;;;;;;;5.10;2.92;;;24.30;63.60;;;;;;10294976;28;20081;-57
2023/07/12 13:28:47;;;;;;;4.78;2.38;;;24.30;63.50;;;;;;10294902;28;20101;-56
2023/07/12 13:33:48;;;;;;;6.43;2.22;;;24.30;63.60;;;;;;10294466;28;20026;-57
2023/07/12 13:38:49;;;;;;;3.67;2.30;;;24.30;63.60;;;;;;10294111;28;20097;-58
2023/07/12 13:43:53;;;;;;;5.50;2.50;;;24.30;63.50;;;;;;10294508;28;20026;-57
2023/07/12 13:48:53;;;;;;;6.20;2.15;;;24.30;63.40;;;;;;10294251;28;20027;-56
2023/07/12 13:53:54;;;;;;;6.78;2.63;;;24.20;63.60;;;;;;10294467;28;20019;-56
2023/07/12 13:58:55;;;;;;;4.65;2.42;;;24.30;63.70;;;;;;10294115;28;20085;-56
2023/07/12 14:03:55;;;;;;;4.82;1.92;;;24.20;63.60;;;;;;10293716;28;20314;-56
2023/07/12 14:08:56;;;;;;;5.45;2.42;;;24.20;63.30;;;;;;10307326;28;20019;-58
2023/07/12 14:13:57;;;;;;;4.18;2.38;;;24.20;63.30;;;;;;10311036;28;20473;-58
2023/07/12 14:18:57;;;;;;;2.58;1.95;;;24.20;63.20;;;;;;10312159;28;20102;-56
2023/07/12 14:23:58;;;;;;;3.33;2.20;;;24.20;63.10;;;;;;10289252;28;20123;-57
2023/07/12 14:28:59;;;;;;;2.85;1.98;;;24.20;63.40;;;;;;10287571;28;20614;-56
2023/07/12 14:33:59;;;;;;;5.00;2.20;;;24.20;63.00;;;;;;10286457;28;20059;-56
2023/07/12 14:39:00;;;;;;;6.55;2.25;;;24.20;63.20;;;;;;10287482;28;20101;-56
2023/07/12 14:44:15;;;;;;;2.70;1.83;;;24.20;63.10;;;;;;10286469;28;20117;-57
2023/07/12 14:49:16;;;;;;;4.20;1.98;;;24.20;62.90;;;;;;10287256;28;20374;-57
2023/07/12 14:54:17;;;;;;;3.03;1.77;;;24.20;63.00;;;;;;10286485;28;20059;-57
2023/07/12 14:59:18;;;;;;;2.58;1.83;;;24.20;62.90;;;;;;10286284;28;20343;-57
2023/07/12 15:04:19;;;;;;;3.50;1.90;;;24.10;62.80;;;;;;10285561;28;20058;-56
2023/07/12 15:09:19;;;;;;;3.03;1.70;;;24.10;63.10;;;;;;10312775;28;20068;-56
2023/07/12 15:14:20;;;;;;;6.57;2.67;;;24.10;63.30;;;;;;10310673;28;20582;-57
2023/07/12 15:19:21;;;;;;;5.68;1.90;;;24.20;63.10;;;;;;10320458;28;20118;-59
2023/07/12 15:24:22;;;;;;;16.40;3.25;;;24.20;63.40;;;;;;10321857;28;20453;-57
2023/07/12 15:29:23;;;;;;;10.82;3.33;;;24.30;63.50;;;;;;10313582;28;20105;-56
2023/07/12 15:34:23;;;;;;;7.57;3.95;;;24.30;64.60;;;;;;10316463;28;20065;-55
2023/07/12 15:39:25;;;;;;;9.75;3.10;;;24.40;66.20;;;;;;10313050;28;20027;-56
2023/07/12 15:44:26;;;;;;;9.82;2.35;;;24.40;65.70;;;;;;10306445;28;20661;-58
2023/07/12 15:49:26;;;;;;;10.10;2.40;;;24.40;66.00;;;;;;10326611;28;20030;-57
2023/07/12 15:54:29;;;;;;;14.93;3.03;;;24.40;65.20;;;;;;10326390;28;20026;-57
2023/07/12 15:59:31;;;;;;;11.15;2.78;;;24.50;65.70;;;;;;10318595;28;20026;-56
2023/07/12 16:04:32;;;;;;;12.65;2.45;;;24.50;65.70;;;;;;10300721;28;20105;-57
2023/07/12 16:09:33;;;;;;;10.23;3.00;;;24.50;65.20;;;;;;10298482;28;20533;-57
2023/07/12 16:14:34;;;;;;;12.82;4.07;;;24.50;65.00;;;;;;10296585;28;20022;-57
2023/07/12 16:19:35;;;;;;;18.33;3.97;;;24.50;65.50;;;;;;10306855;28;20030;-57
2023/07/12 16:24:35;;;;;;;11.18;2.45;;;24.40;65.40;;;;;;10302920;28;20038;-57
2023/07/12 16:29:37;;;;;;;10.93;2.47;;;24.50;65.60;;;;;;10297813;28;20018;-58
2023/07/12 16:34:38;;;;;;;16.52;4.65;;;24.50;65.00;;;;;;10296050;28;20089;-58
2023/07/12 16:39:39;;;;;;;12.02;3.50;;;24.40;65.90;;;;;;10307545;28;20065;-56
2023/07/12 16:44:40;;;;;;;8.55;2.83;;;24.40;65.80;;;;;;10306456;28;20469;-58
2023/07/12 16:49:41;;;;;;;14.80;3.25;;;24.40;65.80;;;;;;10319127;28;20073;-57
2023/07/12 16:54:43;;;;;;;7.43;3.05;;;24.30;65.50;;;;;;10324315;28;20023;-56
2023/07/12 16:59:44;;;;;;;9.35;2.75;;;24.30;65.70;;;;;;10324108;28;20026;-57
2023/07/12 17:04:44;;;;;;;7.47;2.47;;;24.30;65.50;;;;;;10324121;28;20133;-58
2023/07/12 17:09:45;;;;;;;6.72;2.88;;;24.30;64.60;;;;;;10311380;28;20041;-58
2023/07/12 17:14:46;;;;;;;10.23;2.63;;;24.30;64.60;;;;;;10290757;28;20746;-58
2023/07/12 17:19:48;;;;;;;8.65;2.42;;;24.30;64.70;;;;;;10305319;28;20027;-58
2023/07/12 17:24:49;;;;;;;9.98;2.92;;;24.30;64.60;;;;;;10304117;28;20023;-57
2023/07/12 17:29:50;;;;;;;8.00;3.05;;;24.30;63.90;;;;;;10304927;28;20027;-59
2023/07/12 17:34:51;;;;;;;6.22;2.35;;;24.30;63.60;;;;;;10283119;28;20031;-57
2023/07/12 17:39:52;;;;;;;9.38;2.70;;;24.40;64.50;;;;;;10283470;28;20023;-57
2023/07/12 17:44:53;;;;;;;7.97;2.78;;;24.30;64.40;;;;;;10283109;28;20035;-57
2023/07/12 17:49:55;;;;;;;5.63;2.30;;;24.30;64.50;;;;;;10286978;28;20026;-58
2023/07/12 17:54:56;;;;;;;7.85;2.60;;;24.30;63.60;;;;;;10295879;28;20085;-57
2023/07/12 17:59:58;;;;;;;9.88;2.92;;;24.20;63.80;;;;;;10290321;28;20041;-57
2023/07/12 18:04:59;;;;;;;8.48;2.08;;;24.20;64.30;;;;;;10289907;28;20047;-58
2023/07/12 18:10:00;;;;;;;7.47;2.40;;;24.20;64.20;;;;;;10321436;28;20033;-58
2023/07/12 18:15:01;;;;;;;13.30;3.15;;;24.20;64.20;;;;;;10311867;28;20035;-57
2023/07/12 18:20:02;;;;;;;12.32;3.88;;;24.20;64.30;;;;;;10314815;28;20019;-57
2023/07/12 18:25:03;;;;;;;7.93;2.55;;;24.20;64.30;;;;;;10328796;28;20026;-57
2023/07/12 18:30:05;;;;;;;10.98;2.58;;;24.20;64.40;;;;;;10329177;28;20160;-57
2023/07/12 18:35:25;;;;;;;6.82;1.90;;;24.20;64.50;;;;;;10328404;28;20023;-57
2023/07/12 18:40:27;;;;;;;8.50;2.30;;;24.20;64.50;;;;;;10324195;28;20023;-57
2023/07/12 18:45:33;;;;;;;5.95;1.90;;;24.20;64.60;;;;;;10320624;28;20026;-57
2023/07/12 18:50:35;;;;;;;9.65;2.13;;;24.20;64.60;;;;;;10327167;28;20559;-57
2023/07/12 18:55:36;;;;;;;5.40;1.95;;;24.20;64.70;;;;;;10321338;28;20030;-57
2023/07/12 19:00:40;;;;;;;6.78;1.73;;;24.20;64.70;;;;;;10323003;28;20034;-56
2023/07/12 19:05:41;;;;;;;5.53;2.42;;;24.20;64.90;;;;;;10318839;28;20646;-55
2023/07/12 19:10:42;;;;;;;6.30;2.08;;;24.10;65.00;;;;;;10321607;28;20030;-58
2023/07/12 19:15:42;;;;;;;5.60;2.00;;;24.10;65.10;;;;;;10315214;28;20043;-57
2023/07/12 19:20:43;;;;;;;9.18;3.00;;;24.10;65.20;;;;;;10305216;28;20154;-57
2023/07/12 19:25:44;;;;;;;8.55;2.00;;;24.10;65.30;;;;;;10316708;28;20030;-56
2023/07/12 19:30:47;;;;;;;4.43;1.95;;;24.10;65.30;;;;;;10309918;28;20822;-57
2023/07/12 19:35:49;;;;;;;6.88;2.13;;;24.10;65.50;;;;;;10317218;28;20026;-58
2023/07/12 19:40:50;;;;;;;4.30;1.83;;;24.00;65.60;;;;;;10322194;28;20034;-58
2023/07/12 19:45:50;;;;;;;4.90;1.80;;;24.00;65.70;;;;;;10320602;28;20027;-58
2023/07/12 19:50:51;;;;;;;6.03;1.38;;;24.00;65.30;;;;;;10313448;28;20022;-57
2023/07/12 19:55:52;;;;;;;3.25;2.08;;;24.00;65.30;;;;;;10309426;28;20026;-56
2023/07/12 20:00:53;;;;;;;2.53;1.55;;;23.90;65.10;;;;;;10323643;28;20026;-57
2023/07/12 20:05:53;;;;;;;3.53;1.95;;;23.90;65.10;;;;;;10325521;28;20468;-58
2023/07/12 20:10:54;;;;;;;3.47;1.77;;;23.90;65.00;;;;;;10303566;28;20354;-56
2023/07/12 20:15:56;;;;;;;3.30;1.55;;;23.90;64.90;;;;;;10307121;28;20058;-55
2023/07/12 20:20:57;;;;;;;4.93;1.65;;;23.90;64.70;;;;;;10287634;28;20089;-58
2023/07/12 20:25:58;;;;;;;3.97;1.50;;;23.90;64.70;;;;;;10285142;28;20027;-58
2023/07/12 20:30:59;;;;;;;4.28;1.85;;;23.90;64.80;;;;;;10284513;28;20089;-58
2023/07/12 20:36:00;;;;;;;4.22;1.75;;;23.90;64.70;;;;;;10285044;28;20130;-57
2023/07/12 20:41:01;;;;;;;2.78;1.33;;;23.90;64.50;;;;;;10284549;28;20034;-57
2023/07/12 20:46:01;;;;;;;6.20;2.30;;;23.80;64.60;;;;;;10283952;28;20374;-57
2023/07/12 20:51:16;;;;;;;3.45;1.73;;;23.80;64.70;;;;;;10297287;28;20035;-58
2023/07/12 20:56:21;;;;;;;3.33;1.35;;;23.80;64.60;;;;;;10284135;28;20481;-57
2023/07/12 21:01:26;;;;;;;4.47;1.70;;;23.80;64.40;;;;;;10283918;28;20085;-58
2023/07/12 21:06:26;;;;;;;3.95;1.50;;;23.80;64.50;;;;;;10283147;28;20126;-56
2023/07/12 21:11:29;;;;;;;4.30;1.20;;;23.80;64.60;;;;;;10295748;28;20405;-56
2023/07/12 21:16:30;;;;;;;2.25;1.80;;;23.80;64.40;;;;;;10308264;28;20025;-56
2023/07/12 21:21:30;;;;;;;2.15;1.27;;;23.80;64.40;;;;;;10283021;28;20034;-56
2023/07/12 21:26:31;;;;;;;3.40;1.30;;;23.70;64.40;;;;;;10283065;28;20034;-56
2023/07/12 21:31:32;;;;;;;2.42;1.25;;;23.70;64.30;;;;;;10290730;28;20034;-57
2023/07/12 21:36:32;;;;;;;2.67;1.45;;;23.70;64.20;;;;;;10291353;28;20035;-56
2023/07/12 21:41:33;;;;;;;8.68;1.75;;;23.70;64.30;;;;;;10290936;28;20057;-57
2023/07/12 21:46:34;;;;;;;3.40;1.30;;;23.70;64.40;;;;;;10290791;28;20025;-57
2023/07/12 21:51:35;;;;;;;3.60;1.33;;;23.70;64.40;;;;;;10290705;28;20030;-57
2023/07/12 21:56:35;;;;;;;3.75;1.58;;;23.70;64.50;;;;;;10290626;28;20782;-56
2023/07/12 22:01:37;;;;;;;3.60;2.15;;;23.70;64.50;;;;;;10290202;28;20062;-56
2023/07/12 22:06:42;;;;;;;3.38;1.40;;;23.70;64.50;;;;;;10302605;28;20050;-56
2023/07/12 22:11:43;;;;;;;2.45;1.35;;;23.70;64.50;;;;;;10301896;28;20027;-57
2023/07/12 22:16:44;;;;;;;3.60;1.77;;;23.70;64.50;;;;;;10314699;28;20474;-56
2023/07/12 22:21:45;;;;;;;2.78;1.55;;;23.70;64.50;;;;;;10289379;28;20035;-56
2023/07/12 22:26:46;;;;;;;3.58;1.50;;;23.70;64.60;;;;;;10289034;28;20023;-56
2023/07/12 22:31:46;;;;;;;3.55;1.52;;;23.60;64.50;;;;;;10288883;28;20034;-56
2023/07/12 22:36:48;;;;;;;2.83;1.38;;;23.60;64.40;;;;;;10288922;28;20043;-57
2023/07/12 22:41:49;;;;;;;3.88;1.20;;;23.60;64.50;;;;;;10308826;28;20088;-57
2023/07/12 22:46:51;;;;;;;4.28;1.48;;;23.60;64.40;;;;;;10293573;28;20046;-57
2023/07/12 22:51:52;;;;;;;2.45;1.27;;;23.60;64.20;;;;;;10288758;28;20023;-56
2023/07/12 22:56:53;;;;;;;4.07;1.70;;;23.60;64.30;;;;;;10288350;28;20035;-56
2023/07/12 23:01:54;;;;;;;4.07;1.35;;;23.60;64.20;;;;;;10288044;28;20038;-56
2023/07/12 23:06:54;;;;;;;2.80;1.27;;;23.60;64.20;;;;;;10290475;28;20053;-57
2023/07/12 23:11:55;;;;;;;2.25;1.30;;;23.60;64.20;;;;;;10297896;28;20027;-57
2023/07/12 23:16:56;;;;;;;2.55;1.30;;;23.60;64.20;;;;;;10313035;28;20033;-57
2023/07/12 23:21:56;;;;;;;3.15;1.20;;;23.60;64.10;;;;;;10287109;28;20037;-56
2023/07/12 23:27:03;;;;;;;2.35;1.40;;;23.60;64.00;;;;;;10287362;28;20053;-57
2023/07/12 23:32:05;;;;;;;2.83;1.35;;;23.50;64.10;;;;;;10286946;28;20555;-57
2023/07/12 23:37:10;;;;;;;3.10;1.73;;;23.50;63.90;;;;;;10286718;28;20027;-57
2023/07/12 23:42:16;;;;;;;2.15;1.40;;;23.50;63.70;;;;;;10286857;28;20038;-57
2023/07/12 23:47:17;;;;;;;3.45;1.10;;;23.50;63.70;;;;;;10314057;28;20359;-56
2023/07/12 23:52:18;;;;;;;4.28;1.38;;;23.50;63.70;;;;;;10326117;28;20026;-57
2023/07/12 23:57:21;;;;;;;3.72;1.33;;;23.50;63.50;;;;;;10325997;28;20469;-57
